Startpagina
METAR-TAF:

METAR-TAF

Vliegvelden :

Yap, Micronesië

breedte: 09-29N, lengte: 138-05E, hoogte: 28 m

Actueel weer

Dit bericht is 55 minuten geleden gemaakt, om 15:50 UTC
Weinig wind
Temperatuur 26°C
Vochtigheid 94%
Druk 1010 hPa
Zicht: 19.3 km
Weinig wolken op 1600 ft
Verspreide wolken op 30000 ft

METAR: PTYA 151550Z 00000KT 12SM FEW016 SCT300 26/25 A2982 RMK SLP098 T02590248

Tijdstip: 02:45 (16:45 UTC)

Verwachting

Dit bericht is 5 uur en het 25 minuten geleden gemaakt, om 11:20 UTC
Verwachting geldig van 15 om 12 UTC tot 16 om 12 UTC
Wind 6 kt uit variabele richting
Zicht: 10 km
Verspreide wolken op 1600 ft
Verspreide wolken op 12000 ft
buien in de omgeving

TAF: PTYA 151120Z 1512/1612 VRB06KT P6SM VCSH SCT016 SCT120

Waarnemingen en weersverwachtingen van meer dan 4000 vliegvelden (METAR en TAF).

De beschikbare stations zijn de gele en rode punten op de kaart.

Ga met uw muis naar het station om de naam te zien.

Klik dan om waarnemingen en weersverwachtingen te zien.

kaart wijzigen: klik op de groene knoppen met een zwart kruis om in te zoomen, op de groene knop met een streepje om uit te zoomen of op de groene pijlen voor aangrenzende kaarten.


METAR-TAF: